sensor_id;sensor_type;location;lat;lon;timestamp;P1;durP1;ratioP1;P2;durP2;ratioP2
12356;SDS011;6243;51.244;6.774;2024-03-02T00:00:51;1.40;;;1.30;;
12356;SDS011;6243;51.244;6.774;2024-03-02T00:03:17;1.53;;;1.40;;
12356;SDS011;6243;51.244;6.774;2024-03-02T00:05:42;1.73;;;1.57;;
12356;SDS011;6243;51.244;6.774;2024-03-02T00:08:10;1.63;;;1.53;;
12356;SDS011;6243;51.244;6.774;2024-03-02T00:10:36;1.73;;;1.50;;
12356;SDS011;6243;51.244;6.774;2024-03-02T00:13:03;2.23;;;1.47;;
12356;SDS011;6243;51.244;6.774;2024-03-02T00:15:41;4.17;;;1.40;;
12356;SDS011;6243;51.244;6.774;2024-03-02T00:18:10;2.33;;;1.73;;
12356;SDS011;6243;51.244;6.774;2024-03-02T00:20:37;2.20;;;1.67;;
12356;SDS011;6243;51.244;6.774;2024-03-02T00:23:03;2.20;;;1.50;;
12356;SDS011;6243;51.244;6.774;2024-03-02T00:25:34;2.77;;;1.70;;
12356;SDS011;6243;51.244;6.774;2024-03-02T00:28:03;2.40;;;1.60;;
12356;SDS011;6243;51.244;6.774;2024-03-02T00:30:36;2.37;;;1.63;;
12356;SDS011;6243;51.244;6.774;2024-03-02T00:33:15;1.83;;;1.60;;
12356;SDS011;6243;51.244;6.774;2024-03-02T00:35:43;2.13;;;1.60;;
12356;SDS011;6243;51.244;6.774;2024-03-02T00:38:09;1.53;;;1.40;;
12356;SDS011;6243;51.244;6.774;2024-03-02T00:40:36;2.20;;;1.70;;
12356;SDS011;6243;51.244;6.774;2024-03-02T00:43:01;1.97;;;1.40;;
12356;SDS011;6243;51.244;6.774;2024-03-02T00:45:27;1.53;;;1.43;;
12356;SDS011;6243;51.244;6.774;2024-03-02T00:47:53;1.43;;;1.33;;
12356;SDS011;6243;51.244;6.774;2024-03-02T00:50:18;1.50;;;1.40;;
12356;SDS011;6243;51.244;6.774;2024-03-02T00:52:44;2.97;;;1.70;;
12356;SDS011;6243;51.244;6.774;2024-03-02T00:55:10;1.57;;;1.40;;
12356;SDS011;6243;51.244;6.774;2024-03-02T00:57:37;1.50;;;1.40;;
12356;SDS011;6243;51.244;6.774;2024-03-02T01:00:03;1.60;;;1.47;;
12356;SDS011;6243;51.244;6.774;2024-03-02T01:02:29;2.27;;;1.60;;
12356;SDS011;6243;51.244;6.774;2024-03-02T01:04:55;1.83;;;1.60;;
12356;SDS011;6243;51.244;6.774;2024-03-02T01:07:20;1.93;;;1.50;;
12356;SDS011;6243;51.244;6.774;2024-03-02T01:09:46;2.03;;;1.50;;
12356;SDS011;6243;51.244;6.774;2024-03-02T01:12:11;1.70;;;1.50;;
12356;SDS011;6243;51.244;6.774;2024-03-02T01:14:38;2.43;;;1.50;;
12356;SDS011;6243;51.244;6.774;2024-03-02T01:17:03;1.63;;;1.50;;
12356;SDS011;6243;51.244;6.774;2024-03-02T01:19:29;1.97;;;1.70;;
12356;SDS011;6243;51.244;6.774;2024-03-02T01:21:55;2.10;;;1.90;;
12356;SDS011;6243;51.244;6.774;2024-03-02T01:24:20;1.53;;;1.40;;
12356;SDS011;6243;51.244;6.774;2024-03-02T01:26:46;3.30;;;1.73;;
12356;SDS011;6243;51.244;6.774;2024-03-02T01:29:11;1.93;;;1.57;;
12356;SDS011;6243;51.244;6.774;2024-03-02T01:31:38;1.50;;;1.40;;
12356;SDS011;6243;51.244;6.774;2024-03-02T01:34:03;3.13;;;1.47;;
12356;SDS011;6243;51.244;6.774;2024-03-02T01:36:29;1.20;;;1.10;;
12356;SDS011;6243;51.244;6.774;2024-03-02T01:38:54;1.40;;;1.30;;
12356;SDS011;6243;51.244;6.774;2024-03-02T01:41:20;1.60;;;1.40;;
12356;SDS011;6243;51.244;6.774;2024-03-02T01:43:45;1.53;;;1.43;;
12356;SDS011;6243;51.244;6.774;2024-03-02T01:46:11;2.20;;;1.30;;
12356;SDS011;6243;51.244;6.774;2024-03-02T01:48:38;1.40;;;1.30;;
12356;SDS011;6243;51.244;6.774;2024-03-02T01:51:04;1.70;;;1.50;;
12356;SDS011;6243;51.244;6.774;2024-03-02T01:53:29;1.30;;;1.20;;
12356;SDS011;6243;51.244;6.774;2024-03-02T01:55:55;3.13;;;1.30;;
12356;SDS011;6243;51.244;6.774;2024-03-02T01:58:20;2.10;;;1.30;;
12356;SDS011;6243;51.244;6.774;2024-03-02T02:00:46;1.50;;;1.40;;
12356;SDS011;6243;51.244;6.774;2024-03-02T02:03:11;2.50;;;1.57;;
12356;SDS011;6243;51.244;6.774;2024-03-02T02:05:38;2.63;;;1.57;;
12356;SDS011;6243;51.244;6.774;2024-03-02T02:08:04;1.60;;;1.40;;
12356;SDS011;6243;51.244;6.774;2024-03-02T02:10:30;1.93;;;1.53;;
12356;SDS011;6243;51.244;6.774;2024-03-02T02:12:55;1.63;;;1.50;;
12356;SDS011;6243;51.244;6.774;2024-03-02T02:15:21;1.83;;;1.40;;
12356;SDS011;6243;51.244;6.774;2024-03-02T02:17:48;1.60;;;1.40;;
12356;SDS011;6243;51.244;6.774;2024-03-02T02:20:13;1.33;;;1.23;;
12356;SDS011;6243;51.244;6.774;2024-03-02T02:22:41;1.60;;;1.30;;
12356;SDS011;6243;51.244;6.774;2024-03-02T02:25:18;3.27;;;1.50;;
12356;SDS011;6243;51.244;6.774;2024-03-02T02:27:44;3.00;;;1.57;;
12356;SDS011;6243;51.244;6.774;2024-03-02T02:30:10;4.60;;;1.70;;
12356;SDS011;6243;51.244;6.774;2024-03-02T02:32:36;2.80;;;1.70;;
12356;SDS011;6243;51.244;6.774;2024-03-02T02:35:02;2.40;;;1.57;;
12356;SDS011;6243;51.244;6.774;2024-03-02T02:37:28;2.67;;;1.70;;
12356;SDS011;6243;51.244;6.774;2024-03-02T02:39:54;2.97;;;1.50;;
12356;SDS011;6243;51.244;6.774;2024-03-02T02:42:20;2.80;;;1.57;;
12356;SDS011;6243;51.244;6.774;2024-03-02T02:44:45;1.40;;;1.30;;
12356;SDS011;6243;51.244;6.774;2024-03-02T02:47:11;2.10;;;1.43;;
12356;SDS011;6243;51.244;6.774;2024-03-02T02:49:36;2.40;;;1.60;;
12356;SDS011;6243;51.244;6.774;2024-03-02T02:52:02;1.90;;;1.50;;
12356;SDS011;6243;51.244;6.774;2024-03-02T02:54:27;2.07;;;1.70;;
12356;SDS011;6243;51.244;6.774;2024-03-02T02:56:54;1.93;;;1.80;;
12356;SDS011;6243;51.244;6.774;2024-03-02T02:59:20;2.10;;;1.67;;
12356;SDS011;6243;51.244;6.774;2024-03-02T03:01:45;1.80;;;1.57;;
12356;SDS011;6243;51.244;6.774;2024-03-02T03:04:11;2.50;;;2.00;;
12356;SDS011;6243;51.244;6.774;2024-03-02T03:06:36;2.10;;;1.70;;
12356;SDS011;6243;51.244;6.774;2024-03-02T03:09:01;2.70;;;2.10;;
12356;SDS011;6243;51.244;6.774;2024-03-02T03:11:27;3.13;;;1.67;;
12356;SDS011;6243;51.244;6.774;2024-03-02T03:13:54;2.93;;;1.63;;
12356;SDS011;6243;51.244;6.774;2024-03-02T03:16:19;2.07;;;1.70;;
12356;SDS011;6243;51.244;6.774;2024-03-02T03:18:45;3.03;;;1.70;;
12356;SDS011;6243;51.244;6.774;2024-03-02T03:21:10;2.03;;;1.47;;
12356;SDS011;6243;51.244;6.774;2024-03-02T03:23:36;2.03;;;1.67;;
12356;SDS011;6243;51.244;6.774;2024-03-02T03:26:01;5.13;;;1.70;;
12356;SDS011;6243;51.244;6.774;2024-03-02T03:28:27;1.73;;;1.40;;
12356;SDS011;6243;51.244;6.774;2024-03-02T03:30:54;2.23;;;1.57;;
12356;SDS011;6243;51.244;6.774;2024-03-02T03:33:19;2.23;;;1.47;;
12356;SDS011;6243;51.244;6.774;2024-03-02T03:35:45;2.47;;;1.60;;
12356;SDS011;6243;51.244;6.774;2024-03-02T03:38:11;2.57;;;1.60;;
12356;SDS011;6243;51.244;6.774;2024-03-02T03:40:36;1.60;;;1.50;;
12356;SDS011;6243;51.244;6.774;2024-03-02T03:43:02;1.53;;;1.27;;
12356;SDS011;6243;51.244;6.774;2024-03-02T03:45:27;1.93;;;1.53;;
12356;SDS011;6243;51.244;6.774;2024-03-02T03:47:54;1.67;;;1.40;;
12356;SDS011;6243;51.244;6.774;2024-03-02T03:50:20;1.33;;;1.23;;
12356;SDS011;6243;51.244;6.774;2024-03-02T03:52:45;1.33;;;1.23;;
12356;SDS011;6243;51.244;6.774;2024-03-02T03:55:11;2.90;;;1.70;;
12356;SDS011;6243;51.244;6.774;2024-03-02T03:57:36;2.37;;;1.30;;
12356;SDS011;6243;51.244;6.774;2024-03-02T04:00:02;1.73;;;1.63;;
12356;SDS011;6243;51.244;6.774;2024-03-02T04:02:29;2.10;;;1.53;;
12356;SDS011;6243;51.244;6.774;2024-03-02T04:04:55;2.67;;;1.40;;
12356;SDS011;6243;51.244;6.774;2024-03-02T04:07:21;1.70;;;1.57;;
12356;SDS011;6243;51.244;6.774;2024-03-02T04:09:46;1.80;;;1.70;;
12356;SDS011;6243;51.244;6.774;2024-03-02T04:12:12;3.87;;;1.87;;
12356;SDS011;6243;51.244;6.774;2024-03-02T04:14:37;1.70;;;1.60;;
12356;SDS011;6243;51.244;6.774;2024-03-02T04:17:03;2.90;;;1.43;;
12356;SDS011;6243;51.244;6.774;2024-03-02T04:19:28;1.93;;;1.73;;
12356;SDS011;6243;51.244;6.774;2024-03-02T04:21:55;1.70;;;1.60;;
12356;SDS011;6243;51.244;6.774;2024-03-02T04:24:21;2.23;;;1.77;;
12356;SDS011;6243;51.244;6.774;2024-03-02T04:26:46;2.97;;;1.80;;
12356;SDS011;6243;51.244;6.774;2024-03-02T04:29:12;2.10;;;1.40;;
12356;SDS011;6243;51.244;6.774;2024-03-02T04:31:37;2.17;;;1.70;;
12356;SDS011;6243;51.244;6.774;2024-03-02T04:34:03;1.43;;;1.33;;
12356;SDS011;6243;51.244;6.774;2024-03-02T04:36:28;2.17;;;1.53;;
12356;SDS011;6243;51.244;6.774;2024-03-02T04:38:55;1.70;;;1.23;;
12356;SDS011;6243;51.244;6.774;2024-03-02T04:41:20;3.83;;;1.70;;
12356;SDS011;6243;51.244;6.774;2024-03-02T04:43:46;2.30;;;1.50;;
12356;SDS011;6243;51.244;6.774;2024-03-02T04:46:11;2.47;;;1.80;;
12356;SDS011;6243;51.244;6.774;2024-03-02T04:48:37;2.17;;;1.60;;
12356;SDS011;6243;51.244;6.774;2024-03-02T04:51:03;2.47;;;1.37;;
12356;SDS011;6243;51.244;6.774;2024-03-02T04:53:28;1.97;;;1.60;;
12356;SDS011;6243;51.244;6.774;2024-03-02T04:55:55;1.63;;;1.47;;
12356;SDS011;6243;51.244;6.774;2024-03-02T04:58:21;2.27;;;1.50;;
12356;SDS011;6243;51.244;6.774;2024-03-02T05:00:46;1.33;;;1.20;;
12356;SDS011;6243;51.244;6.774;2024-03-02T05:03:12;5.00;;;1.57;;
12356;SDS011;6243;51.244;6.774;2024-03-02T05:05:37;2.37;;;1.60;;
12356;SDS011;6243;51.244;6.774;2024-03-02T05:08:03;1.37;;;1.27;;
12356;SDS011;6243;51.244;6.774;2024-03-02T05:10:29;2.63;;;1.60;;
12356;SDS011;6243;51.244;6.774;2024-03-02T05:12:56;3.07;;;1.50;;
12356;SDS011;6243;51.244;6.774;2024-03-02T05:15:21;1.80;;;1.60;;
12356;SDS011;6243;51.244;6.774;2024-03-02T05:17:47;1.97;;;1.43;;
12356;SDS011;6243;51.244;6.774;2024-03-02T05:20:12;1.93;;;1.50;;
12356;SDS011;6243;51.244;6.774;2024-03-02T05:22:38;2.17;;;1.70;;
12356;SDS011;6243;51.244;6.774;2024-03-02T05:25:04;1.87;;;1.33;;
12356;SDS011;6243;51.244;6.774;2024-03-02T05:27:30;2.50;;;1.53;;
12356;SDS011;6243;51.244;6.774;2024-03-02T05:29:57;1.63;;;1.50;;
12356;SDS011;6243;51.244;6.774;2024-03-02T05:32:23;3.03;;;1.70;;
12356;SDS011;6243;51.244;6.774;2024-03-02T05:34:48;2.37;;;1.70;;
12356;SDS011;6243;51.244;6.774;2024-03-02T05:37:14;2.10;;;1.90;;
12356;SDS011;6243;51.244;6.774;2024-03-02T05:39:39;2.00;;;1.70;;
12356;SDS011;6243;51.244;6.774;2024-03-02T05:42:05;2.13;;;1.70;;
12356;SDS011;6243;51.244;6.774;2024-03-02T05:44:30;2.27;;;1.80;;
12356;SDS011;6243;51.244;6.774;2024-03-02T05:46:57;1.87;;;1.70;;
12356;SDS011;6243;51.244;6.774;2024-03-02T05:49:23;2.50;;;1.60;;
12356;SDS011;6243;51.244;6.774;2024-03-02T05:51:48;1.90;;;1.57;;
12356;SDS011;6243;51.244;6.774;2024-03-02T05:54:14;3.00;;;1.90;;
12356;SDS011;6243;51.244;6.774;2024-03-02T05:56:39;2.83;;;1.90;;
12356;SDS011;6243;51.244;6.774;2024-03-02T05:59:05;2.57;;;1.67;;
12356;SDS011;6243;51.244;6.774;2024-03-02T06:01:30;3.63;;;1.97;;
12356;SDS011;6243;51.244;6.774;2024-03-02T06:03:57;1.83;;;1.47;;
12356;SDS011;6243;51.244;6.774;2024-03-02T06:06:22;3.63;;;1.90;;
12356;SDS011;6243;51.244;6.774;2024-03-02T06:08:48;2.23;;;1.90;;
12356;SDS011;6243;51.244;6.774;2024-03-02T06:11:13;1.97;;;1.77;;
12356;SDS011;6243;51.244;6.774;2024-03-02T06:13:39;2.50;;;2.10;;
12356;SDS011;6243;51.244;6.774;2024-03-02T06:16:05;2.10;;;1.70;;
12356;SDS011;6243;51.244;6.774;2024-03-02T06:18:32;3.10;;;2.10;;
12356;SDS011;6243;51.244;6.774;2024-03-02T06:20:58;2.97;;;1.63;;
12356;SDS011;6243;51.244;6.774;2024-03-02T06:23:24;2.60;;;1.90;;
12356;SDS011;6243;51.244;6.774;2024-03-02T06:25:49;1.90;;;1.63;;
12356;SDS011;6243;51.244;6.774;2024-03-02T06:28:15;2.20;;;2.00;;
12356;SDS011;6243;51.244;6.774;2024-03-02T06:30:40;2.00;;;1.80;;
12356;SDS011;6243;51.244;6.774;2024-03-02T06:33:06;2.37;;;1.93;;
12356;SDS011;6243;51.244;6.774;2024-03-02T06:35:31;2.53;;;1.70;;
12356;SDS011;6243;51.244;6.774;2024-03-02T06:37:58;2.20;;;2.00;;
12356;SDS011;6243;51.244;6.774;2024-03-02T06:40:24;3.13;;;2.10;;
12356;SDS011;6243;51.244;6.774;2024-03-02T06:42:49;4.70;;;2.17;;
12356;SDS011;6243;51.244;6.774;2024-03-02T06:45:15;4.87;;;2.07;;
12356;SDS011;6243;51.244;6.774;2024-03-02T06:47:40;2.57;;;2.20;;
12356;SDS011;6243;51.244;6.774;2024-03-02T06:50:06;2.20;;;2.00;;
12356;SDS011;6243;51.244;6.774;2024-03-02T06:52:32;3.17;;;1.93;;
12356;SDS011;6243;51.244;6.774;2024-03-02T06:54:59;4.17;;;2.37;;
12356;SDS011;6243;51.244;6.774;2024-03-02T06:57:24;2.63;;;2.00;;
12356;SDS011;6243;51.244;6.774;2024-03-02T06:59:50;2.00;;;1.90;;
12356;SDS011;6243;51.244;6.774;2024-03-02T07:02:15;3.57;;;2.17;;
12356;SDS011;6243;51.244;6.774;2024-03-02T07:04:41;2.67;;;2.00;;
12356;SDS011;6243;51.244;6.774;2024-03-02T07:07:06;2.13;;;1.93;;
12356;SDS011;6243;51.244;6.774;2024-03-02T07:09:32;2.03;;;1.83;;
12356;SDS011;6243;51.244;6.774;2024-03-02T07:11:58;2.33;;;2.03;;
12356;SDS011;6243;51.244;6.774;2024-03-02T07:14:24;2.70;;;1.90;;
12356;SDS011;6243;51.244;6.774;2024-03-02T07:16:49;3.30;;;2.30;;
12356;SDS011;6243;51.244;6.774;2024-03-02T07:19:15;2.63;;;1.90;;
12356;SDS011;6243;51.244;6.774;2024-03-02T07:21:40;2.77;;;2.20;;
12356;SDS011;6243;51.244;6.774;2024-03-02T07:24:06;2.47;;;1.80;;
12356;SDS011;6243;51.244;6.774;2024-03-02T07:26:32;2.67;;;1.90;;
12356;SDS011;6243;51.244;6.774;2024-03-02T07:28:59;2.67;;;2.07;;
12356;SDS011;6243;51.244;6.774;2024-03-02T07:31:24;3.57;;;1.90;;
12356;SDS011;6243;51.244;6.774;2024-03-02T07:33:50;2.20;;;1.73;;
12356;SDS011;6243;51.244;6.774;2024-03-02T07:36:15;2.77;;;1.90;;
12356;SDS011;6243;51.244;6.774;2024-03-02T07:38:41;3.07;;;2.03;;
12356;SDS011;6243;51.244;6.774;2024-03-02T07:41:07;3.37;;;2.23;;
12356;SDS011;6243;51.244;6.774;2024-03-02T07:43:33;3.23;;;2.07;;
12356;SDS011;6243;51.244;6.774;2024-03-02T07:46:01;2.37;;;2.00;;
12356;SDS011;6243;51.244;6.774;2024-03-02T07:48:26;3.10;;;2.30;;
12356;SDS011;6243;51.244;6.774;2024-03-02T07:50:52;2.57;;;1.90;;
12356;SDS011;6243;51.244;6.774;2024-03-02T07:53:17;2.50;;;2.10;;
12356;SDS011;6243;51.244;6.774;2024-03-02T07:55:43;3.57;;;2.10;;
12356;SDS011;6243;51.244;6.774;2024-03-02T07:58:08;2.73;;;2.23;;
12356;SDS011;6243;51.244;6.774;2024-03-02T08:00:34;2.90;;;2.10;;
12356;SDS011;6243;51.244;6.774;2024-03-02T08:03:01;3.77;;;2.10;;
12356;SDS011;6243;51.244;6.774;2024-03-02T08:05:26;2.93;;;2.23;;
12356;SDS011;6243;51.244;6.774;2024-03-02T08:07:52;3.90;;;2.13;;
12356;SDS011;6243;51.244;6.774;2024-03-02T08:10:18;3.57;;;2.70;;
12356;SDS011;6243;51.244;6.774;2024-03-02T08:12:44;3.70;;;2.60;;
12356;SDS011;6243;51.244;6.774;2024-03-02T08:15:09;4.03;;;2.33;;
12356;SDS011;6243;51.244;6.774;2024-03-02T08:17:35;3.90;;;2.40;;
12356;SDS011;6243;51.244;6.774;2024-03-02T08:20:02;4.27;;;2.30;;
12356;SDS011;6243;51.244;6.774;2024-03-02T08:22:28;4.17;;;2.57;;
12356;SDS011;6243;51.244;6.774;2024-03-02T08:24:53;3.47;;;2.30;;
12356;SDS011;6243;51.244;6.774;2024-03-02T08:27:19;3.63;;;2.30;;
12356;SDS011;6243;51.244;6.774;2024-03-02T08:29:45;3.33;;;2.57;;
12356;SDS011;6243;51.244;6.774;2024-03-02T08:32:10;2.40;;;2.20;;
12356;SDS011;6243;51.244;6.774;2024-03-02T08:34:36;2.43;;;2.00;;
12356;SDS011;6243;51.244;6.774;2024-03-02T08:37:03;3.63;;;2.43;;
12356;SDS011;6243;51.244;6.774;2024-03-02T08:39:29;3.87;;;2.73;;
12356;SDS011;6243;51.244;6.774;2024-03-02T08:41:54;2.40;;;2.20;;
12356;SDS011;6243;51.244;6.774;2024-03-02T08:44:20;2.43;;;2.03;;
12356;SDS011;6243;51.244;6.774;2024-03-02T08:46:46;3.13;;;1.80;;
12356;SDS011;6243;51.244;6.774;2024-03-02T08:49:11;2.80;;;1.70;;
12356;SDS011;6243;51.244;6.774;2024-03-02T08:51:37;2.10;;;1.30;;
12356;SDS011;6243;51.244;6.774;2024-03-02T08:54:04;1.63;;;1.20;;
12356;SDS011;6243;51.244;6.774;2024-03-02T08:56:31;2.13;;;1.67;;
12356;SDS011;6243;51.244;6.774;2024-03-02T08:58:57;1.40;;;1.30;;
12356;SDS011;6243;51.244;6.774;2024-03-02T09:01:23;1.50;;;1.30;;
12356;SDS011;6243;51.244;6.774;2024-03-02T09:03:48;2.77;;;1.50;;
12356;SDS011;6243;51.244;6.774;2024-03-02T09:06:14;2.17;;;1.13;;
12356;SDS011;6243;51.244;6.774;2024-03-02T09:08:40;2.37;;;1.30;;
12356;SDS011;6243;51.244;6.774;2024-03-02T09:11:06;2.00;;;1.30;;
12356;SDS011;6243;51.244;6.774;2024-03-02T09:13:32;1.67;;;1.53;;
12356;SDS011;6243;51.244;6.774;2024-03-02T09:15:58;1.47;;;1.37;;
12356;SDS011;6243;51.244;6.774;2024-03-02T09:18:24;1.20;;;1.00;;
12356;SDS011;6243;51.244;6.774;2024-03-02T09:20:49;1.97;;;1.40;;
12356;SDS011;6243;51.244;6.774;2024-03-02T09:23:15;1.50;;;1.40;;
12356;SDS011;6243;51.244;6.774;2024-03-02T09:25:40;1.10;;;1.00;;
12356;SDS011;6243;51.244;6.774;2024-03-02T09:28:07;1.57;;;1.40;;
12356;SDS011;6243;51.244;6.774;2024-03-02T09:30:33;3.30;;;1.77;;
12356;SDS011;6243;51.244;6.774;2024-03-02T09:32:58;2.20;;;1.40;;
12356;SDS011;6243;51.244;6.774;2024-03-02T09:35:24;1.60;;;0.90;;
12356;SDS011;6243;51.244;6.774;2024-03-02T09:37:49;1.03;;;0.73;;
12356;SDS011;6243;51.244;6.774;2024-03-02T09:40:15;3.03;;;1.13;;
12356;SDS011;6243;51.244;6.774;2024-03-02T09:42:40;1.17;;;0.60;;
12356;SDS011;6243;51.244;6.774;2024-03-02T09:45:08;2.10;;;0.93;;
12356;SDS011;6243;51.244;6.774;2024-03-02T09:47:34;1.10;;;0.73;;
12356;SDS011;6243;51.244;6.774;2024-03-02T09:50:00;1.07;;;0.83;;
12356;SDS011;6243;51.244;6.774;2024-03-02T09:52:25;0.60;;;0.60;;
12356;SDS011;6243;51.244;6.774;2024-03-02T09:54:51;3.03;;;1.17;;
12356;SDS011;6243;51.244;6.774;2024-03-02T09:57:17;3.20;;;1.40;;
12356;SDS011;6243;51.244;6.774;2024-03-02T09:59:42;6.03;;;1.50;;
12356;SDS011;6243;51.244;6.774;2024-03-02T10:02:09;1.67;;;0.97;;
12356;SDS011;6243;51.244;6.774;2024-03-02T10:04:34;1.47;;;1.13;;
12356;SDS011;6243;51.244;6.774;2024-03-02T10:07:10;1.30;;;1.00;;
12356;SDS011;6243;51.244;6.774;2024-03-02T10:09:36;1.23;;;0.73;;
12356;SDS011;6243;51.244;6.774;2024-03-02T10:12:03;3.60;;;0.90;;
12356;SDS011;6243;51.244;6.774;2024-03-02T10:14:29;5.43;;;0.90;;
12356;SDS011;6243;51.244;6.774;2024-03-02T10:16:55;2.77;;;1.30;;
12356;SDS011;6243;51.244;6.774;2024-03-02T10:19:28;2.37;;;0.90;;
12356;SDS011;6243;51.244;6.774;2024-03-02T10:21:54;3.30;;;0.77;;
12356;SDS011;6243;51.244;6.774;2024-03-02T10:24:20;1.67;;;0.93;;
12356;SDS011;6243;51.244;6.774;2024-03-02T10:26:46;1.70;;;0.70;;
12356;SDS011;6243;51.244;6.774;2024-03-02T10:29:12;2.07;;;0.80;;
12356;SDS011;6243;51.244;6.774;2024-03-02T10:31:38;2.00;;;0.90;;
12356;SDS011;6243;51.244;6.774;2024-03-02T10:34:04;0.93;;;0.70;;
12356;SDS011;6243;51.244;6.774;2024-03-02T10:36:31;1.57;;;0.70;;
12356;SDS011;6243;51.244;6.774;2024-03-02T10:38:57;2.30;;;0.70;;
12356;SDS011;6243;51.244;6.774;2024-03-02T10:41:23;1.90;;;0.50;;
12356;SDS011;6243;51.244;6.774;2024-03-02T10:43:51;2.30;;;0.87;;
12356;SDS011;6243;51.244;6.774;2024-03-02T10:46:17;1.33;;;1.10;;
12356;SDS011;6243;51.244;6.774;2024-03-02T10:48:44;2.23;;;0.70;;
12356;SDS011;6243;51.244;6.774;2024-03-02T10:51:11;2.23;;;0.57;;
12356;SDS011;6243;51.244;6.774;2024-03-02T10:53:38;1.50;;;0.73;;
12356;SDS011;6243;51.244;6.774;2024-03-02T10:56:04;2.17;;;0.50;;
12356;SDS011;6243;51.244;6.774;2024-03-02T10:58:34;0.70;;;0.70;;
12356;SDS011;6243;51.244;6.774;2024-03-02T11:01:02;1.50;;;0.63;;
12356;SDS011;6243;51.244;6.774;2024-03-02T11:03:28;3.77;;;0.80;;
12356;SDS011;6243;51.244;6.774;2024-03-02T11:05:58;1.13;;;0.93;;
12356;SDS011;6243;51.244;6.774;2024-03-02T11:08:25;2.03;;;1.00;;
12356;SDS011;6243;51.244;6.774;2024-03-02T11:10:57;1.80;;;1.10;;
12356;SDS011;6243;51.244;6.774;2024-03-02T11:13:24;1.30;;;1.07;;
12356;SDS011;6243;51.244;6.774;2024-03-02T11:15:56;1.90;;;1.07;;
12356;SDS011;6243;51.244;6.774;2024-03-02T11:18:27;1.80;;;1.27;;
12356;SDS011;6243;51.244;6.774;2024-03-02T11:20:53;2.17;;;1.10;;
12356;SDS011;6243;51.244;6.774;2024-03-02T11:23:19;2.57;;;1.20;;
12356;SDS011;6243;51.244;6.774;2024-03-02T11:26:05;2.10;;;0.70;;
12356;SDS011;6243;51.244;6.774;2024-03-02T11:28:42;3.97;;;0.70;;
12356;SDS011;6243;51.244;6.774;2024-03-02T11:31:07;1.47;;;1.07;;
12356;SDS011;6243;51.244;6.774;2024-03-02T11:33:33;3.40;;;1.23;;
12356;SDS011;6243;51.244;6.774;2024-03-02T11:35:58;2.43;;;1.40;;
12356;SDS011;6243;51.244;6.774;2024-03-02T11:38:31;1.67;;;1.20;;
12356;SDS011;6243;51.244;6.774;2024-03-02T11:40:57;1.40;;;1.30;;
12356;SDS011;6243;51.244;6.774;2024-03-02T11:43:24;1.70;;;1.57;;
12356;SDS011;6243;51.244;6.774;2024-03-02T11:45:56;3.13;;;1.70;;
12356;SDS011;6243;51.244;6.774;2024-03-02T11:48:22;1.60;;;1.43;;
12356;SDS011;6243;51.244;6.774;2024-03-02T11:50:50;2.20;;;1.70;;
12356;SDS011;6243;51.244;6.774;2024-03-02T11:53:16;1.57;;;1.27;;
12356;SDS011;6243;51.244;6.774;2024-03-02T11:55:42;1.60;;;1.10;;
12356;SDS011;6243;51.244;6.774;2024-03-02T11:58:08;2.03;;;1.20;;
12356;SDS011;6243;51.244;6.774;2024-03-02T12:00:34;3.30;;;1.70;;
12356;SDS011;6243;51.244;6.774;2024-03-02T12:03:00;2.50;;;1.20;;
12356;SDS011;6243;51.244;6.774;2024-03-02T12:05:27;1.67;;;1.47;;
12356;SDS011;6243;51.244;6.774;2024-03-02T12:07:55;1.97;;;1.40;;
12356;SDS011;6243;51.244;6.774;2024-03-02T12:10:21;1.93;;;1.30;;
12356;SDS011;6243;51.244;6.774;2024-03-02T12:12:47;1.93;;;1.10;;
12356;SDS011;6243;51.244;6.774;2024-03-02T12:15:12;1.97;;;1.20;;
12356;SDS011;6243;51.244;6.774;2024-03-02T12:17:39;1.17;;;1.07;;
12356;SDS011;6243;51.244;6.774;2024-03-02T12:20:05;2.00;;;1.00;;
12356;SDS011;6243;51.244;6.774;2024-03-02T12:22:31;1.83;;;1.00;;
12356;SDS011;6243;51.244;6.774;2024-03-02T12:24:57;1.67;;;1.07;;
12356;SDS011;6243;51.244;6.774;2024-03-02T12:27:23;1.40;;;1.20;;
12356;SDS011;6243;51.244;6.774;2024-03-02T12:29:48;1.97;;;1.10;;
12356;SDS011;6243;51.244;6.774;2024-03-02T12:32:14;1.90;;;1.10;;
12356;SDS011;6243;51.244;6.774;2024-03-02T12:34:41;2.13;;;1.00;;
12356;SDS011;6243;51.244;6.774;2024-03-02T12:37:06;1.47;;;1.00;;
12356;SDS011;6243;51.244;6.774;2024-03-02T12:39:32;1.60;;;0.90;;
12356;SDS011;6243;51.244;6.774;2024-03-02T12:41:57;2.60;;;1.60;;
12356;SDS011;6243;51.244;6.774;2024-03-02T12:44:23;4.53;;;1.13;;
12356;SDS011;6243;51.244;6.774;2024-03-02T12:46:48;4.23;;;1.03;;
12356;SDS011;6243;51.244;6.774;2024-03-02T12:49:15;2.87;;;1.00;;
12356;SDS011;6243;51.244;6.774;2024-03-02T12:51:42;1.50;;;0.90;;
12356;SDS011;6243;51.244;6.774;2024-03-02T12:54:08;1.57;;;1.03;;
12356;SDS011;6243;51.244;6.774;2024-03-02T12:56:34;1.30;;;1.20;;
12356;SDS011;6243;51.244;6.774;2024-03-02T12:59:00;2.50;;;1.00;;
12356;SDS011;6243;51.244;6.774;2024-03-02T13:01:25;1.83;;;1.13;;
12356;SDS011;6243;51.244;6.774;2024-03-02T13:03:52;2.03;;;1.33;;
12356;SDS011;6243;51.244;6.774;2024-03-02T13:06:18;1.40;;;1.30;;
12356;SDS011;6243;51.244;6.774;2024-03-02T13:08:46;3.23;;;1.23;;
12356;SDS011;6243;51.244;6.774;2024-03-02T13:11:12;2.00;;;1.27;;
12356;SDS011;6243;51.244;6.774;2024-03-02T13:13:38;1.73;;;1.40;;
12356;SDS011;6243;51.244;6.774;2024-03-02T13:16:04;1.70;;;1.40;;
12356;SDS011;6243;51.244;6.774;2024-03-02T13:18:33;2.37;;;1.27;;
12356;SDS011;6243;51.244;6.774;2024-03-02T13:20:59;2.13;;;1.30;;
12356;SDS011;6243;51.244;6.774;2024-03-02T13:23:24;3.93;;;1.77;;
12356;SDS011;6243;51.244;6.774;2024-03-02T13:25:51;1.30;;;1.20;;
12356;SDS011;6243;51.244;6.774;2024-03-02T13:28:17;1.40;;;1.10;;
12356;SDS011;6243;51.244;6.774;2024-03-02T13:30:42;1.87;;;1.40;;
12356;SDS011;6243;51.244;6.774;2024-03-02T13:33:08;2.30;;;1.40;;
12356;SDS011;6243;51.244;6.774;2024-03-02T13:35:33;2.00;;;1.00;;
12356;SDS011;6243;51.244;6.774;2024-03-02T13:37:59;1.17;;;1.10;;
12356;SDS011;6243;51.244;6.774;2024-03-02T13:40:24;1.70;;;1.10;;
12356;SDS011;6243;51.244;6.774;2024-03-02T13:42:51;1.87;;;1.10;;
12356;SDS011;6243;51.244;6.774;2024-03-02T13:45:17;1.67;;;0.93;;
12356;SDS011;6243;51.244;6.774;2024-03-02T13:47:42;1.27;;;1.07;;
12356;SDS011;6243;51.244;6.774;2024-03-02T13:50:08;1.47;;;1.00;;
12356;SDS011;6243;51.244;6.774;2024-03-02T13:52:34;1.10;;;0.90;;
12356;SDS011;6243;51.244;6.774;2024-03-02T13:55:00;1.33;;;1.10;;
12356;SDS011;6243;51.244;6.774;2024-03-02T13:57:25;1.47;;;1.00;;
12356;SDS011;6243;51.244;6.774;2024-03-02T13:59:52;0.90;;;0.90;;
12356;SDS011;6243;51.244;6.774;2024-03-02T14:02:18;1.60;;;1.17;;
12356;SDS011;6243;51.244;6.774;2024-03-02T14:04:43;1.20;;;1.00;;
12356;SDS011;6243;51.244;6.774;2024-03-02T14:07:09;1.00;;;0.90;;
12356;SDS011;6243;51.244;6.774;2024-03-02T14:09:35;2.53;;;1.20;;
12356;SDS011;6243;51.244;6.774;2024-03-02T14:12:00;1.83;;;1.03;;
12356;SDS011;6243;51.244;6.774;2024-03-02T14:14:27;1.03;;;1.03;;
12356;SDS011;6243;51.244;6.774;2024-03-02T14:16:54;0.93;;;0.93;;
12356;SDS011;6243;51.244;6.774;2024-03-02T14:19:20;1.20;;;0.97;;
12356;SDS011;6243;51.244;6.774;2024-03-02T14:21:45;4.07;;;1.20;;
12356;SDS011;6243;51.244;6.774;2024-03-02T14:24:11;1.27;;;1.17;;
12356;SDS011;6243;51.244;6.774;2024-03-02T14:26:36;1.40;;;0.87;;
12356;SDS011;6243;51.244;6.774;2024-03-02T14:29:02;1.10;;;1.00;;
12356;SDS011;6243;51.244;6.774;2024-03-02T14:31:28;1.30;;;0.93;;
12356;SDS011;6243;51.244;6.774;2024-03-02T14:33:55;1.17;;;0.90;;
12356;SDS011;6243;51.244;6.774;2024-03-02T14:36:21;1.87;;;1.00;;
12356;SDS011;6243;51.244;6.774;2024-03-02T14:38:47;1.40;;;1.23;;
12356;SDS011;6243;51.244;6.774;2024-03-02T14:41:13;2.50;;;1.10;;
12356;SDS011;6243;51.244;6.774;2024-03-02T14:43:39;0.90;;;0.90;;
12356;SDS011;6243;51.244;6.774;2024-03-02T14:46:05;1.13;;;1.00;;
12356;SDS011;6243;51.244;6.774;2024-03-02T14:48:31;1.03;;;1.00;;
12356;SDS011;6243;51.244;6.774;2024-03-02T14:50:58;1.27;;;1.03;;
12356;SDS011;6243;51.244;6.774;2024-03-02T14:53:24;1.27;;;1.00;;